Time;durP1;ratioP1;P1;durP2;ratioP2;P2;SDS_P1;SDS_P2;PMS_P1;PMS_P2;Temp;Humidity;BMP_temperature;BMP_pressure;BME280_temperature;BME280_humidity;BME280_pressure;Samples;Min_cycle;Max_cycle;Signal;HPM_P1;HPM_P2
2023/05/16 00:01:22;;;;;;;5.00;4.50;;;;;;;11.94;89.47;99634.91;102739;277;117803;-52
2023/05/16 00:04:02;;;;;;;5.50;4.40;;;;;;;11.98;89.48;99633.26;102756;277;105574;-53
2023/05/16 00:06:41;;;;;;;6.00;4.30;;;;;;;12.04;89.30;99635.56;102722;277;112491;-53
2023/05/16 00:09:21;;;;;;;5.80;5.10;;;;;;;12.08;89.26;99633.13;102713;277;95507;-53
2023/05/16 00:11:56;;;;;;;5.50;4.70;;;;;;;12.09;89.22;99632.77;102742;277;97889;-53
2023/05/16 00:14:35;;;;;;;5.20;4.70;;;;;;;12.12;89.33;99633.21;102728;277;119078;-52
2023/05/16 00:17:12;;;;;;;5.60;5.00;;;;;;;12.13;89.22;99633.88;102502;277;105777;-51
2023/05/16 00:19:47;;;;;;;5.90;4.60;;;;;;;12.13;89.37;99634.25;102740;277;114393;-53
2023/05/16 00:22:30;;;;;;;5.90;5.30;;;;;;;12.14;89.33;99634.83;102698;277;96809;-53
2023/05/16 00:25:11;;;;;;;5.40;4.90;;;;;;;12.18;89.23;99634.17;102735;277;97031;-52
2023/05/16 00:27:45;;;;;;;6.30;5.10;;;;;;;12.19;89.25;99630.84;102693;277;119859;-53
2023/05/16 00:30:18;;;;;;;;;;;;;;;12.21;89.03;99633.40;102781;277;105698;-56
2023/05/16 00:32:56;;;;;;;6.10;4.90;;;;;;;12.15;89.05;99637.54;102731;277;113901;-56
2023/05/16 00:35:32;;;;;;;6.00;5.40;;;;;;;12.17;88.93;99638.84;102494;277;96157;-56
2023/05/16 00:38:16;;;;;;;7.60;5.30;;;;;;;12.11;89.01;99635.52;102565;266;97686;-57
2023/05/16 00:40:59;;;;;;;6.90;5.50;;;;;;;12.02;88.96;99635.95;102457;278;119274;-52
2023/05/16 00:43:38;;;;;;;6.00;5.40;;;;;;;11.99;88.80;99635.50;102486;277;105297;-56
2023/05/16 00:46:21;;;;;;;5.90;5.40;;;;;;;11.91;89.02;99635.30;102516;277;115011;-56
2023/05/16 00:49:07;;;;;;;6.50;5.90;;;;;;;11.87;89.07;99637.02;102544;277;97017;-53
2023/05/16 00:51:50;;;;;;;6.30;5.30;;;;;;;11.90;89.23;99638.43;102552;277;96928;-54
2023/05/16 00:54:40;;;;;;;6.00;5.40;;;;;;;11.92;89.02;99638.33;102561;277;118751;-56
2023/05/16 00:57:23;;;;;;;8.30;6.40;;;;;;;11.94;89.19;99635.11;102531;277;105588;-56
2023/05/16 01:00:09;;;;;;;7.10;6.10;;;;;;;12.00;89.13;99632.29;102561;277;114773;-56
2023/05/16 01:02:59;;;;;;;8.90;5.60;;;;;;;12.03;89.08;99630.23;102611;277;96852;-55
2023/05/16 01:05:47;;;;;;;6.90;6.10;;;;;;;12.05;89.05;99626.77;102593;277;97178;-57
2023/05/16 01:08:31;;;;;;;6.90;6.10;;;;;;;12.04;89.13;99628.05;102618;277;118466;-56
2023/05/16 01:11:12;;;;;;;6.70;6.10;;;;;;;12.07;89.09;99632.54;102556;277;105265;-56
2023/05/16 01:14:05;;;;;;;7.30;6.60;;;;;;;12.07;89.32;99639.36;102544;277;114287;-53
2023/05/16 01:16:49;;;;;;;6.40;5.70;;;;;;;12.03;89.11;99642.58;102467;277;95981;-53
2023/05/16 01:19:47;;;;;;;10.90;8.00;;;;;;;11.97;89.06;99641.55;102483;278;98573;-53
2023/05/16 01:22:52;;;;;;;6.50;5.80;;;;;;;11.96;89.10;99644.77;102498;278;120016;-53
2023/05/16 01:25:46;;;;;;;8.70;6.30;;;;;;;11.95;89.14;99645.43;102562;278;105306;-56
2023/05/16 01:28:26;;;;;;;;;;;;;;;11.95;89.29;99648.68;102496;267;114133;-55
2023/05/16 01:31:08;;;;;;;7.30;6.60;;;;;;;11.98;89.36;99647.67;102512;278;94809;-52
2023/05/16 01:33:47;;;;;;;6.40;5.80;;;;;;;12.06;89.51;99648.86;102568;277;98821;-53
2023/05/16 01:36:36;;;;;;;9.20;6.70;;;;;;;12.09;89.37;99656.71;102555;277;119260;-53
2023/05/16 01:39:30;;;;;;;7.90;7.10;;;;;;;12.07;89.55;99662.32;102525;277;105684;-52
2023/05/16 01:42:09;;;;;;;8.60;7.80;;;;;;;12.09;89.53;99665.05;102538;277;114549;-53
2023/05/16 01:44:57;;;;;;;7.70;6.90;;;;;;;12.13;89.65;99667.61;102574;277;95323;-52
2023/05/16 01:47:39;;;;;;;8.00;7.20;;;;;;;12.14;89.42;99666.52;102586;277;97952;-53
2023/05/16 01:50:24;;;;;;;8.40;7.50;;;;;;;12.08;89.19;99665.39;102599;277;118536;-55
2023/05/16 01:53:04;;;;;;;8.00;7.20;;;;;;;12.10;89.38;99671.52;102575;277;104516;-56
2023/05/16 01:55:48;;;;;;;8.00;7.20;;;;;;;12.09;89.30;99672.64;102614;277;115072;-53
2023/05/16 01:58:30;;;;;;;8.70;7.60;;;;;;;12.08;89.51;99670.15;102621;277;95367;-53
2023/05/16 02:01:17;;;;;;;8.70;7.70;;;;;;;12.09;89.54;99671.81;102670;277;97251;-57
2023/05/16 02:03:55;;;;;;;8.40;7.50;;;;;;;12.15;89.62;99678.34;102670;277;119627;-56
2023/05/16 02:06:33;;;;;;;9.30;7.30;;;;;;;12.20;89.63;99674.81;102588;277;105677;-56
2023/05/16 02:09:07;;;;;;;8.60;7.50;;;;;;;12.23;89.52;99672.96;102642;277;114520;-53
2023/05/16 02:11:45;;;;;;;8.60;7.70;;;;;;;12.23;89.44;99676.80;102598;277;97195;-53
2023/05/16 02:14:25;;;;;;;10.60;8.10;;;;;;;12.24;89.28;99677.77;102675;277;97479;-56
2023/05/16 02:17:14;;;;;;;8.80;7.70;;;;;;;12.23;89.30;99677.30;102650;277;119276;-56
2023/05/16 02:20:05;;;;;;;8.40;7.50;;;;;;;12.25;89.24;99673.63;102661;277;106072;-56
2023/05/16 02:22:50;;;;;;;8.10;7.30;;;;;;;12.16;89.21;99679.10;102680;277;114750;-57
2023/05/16 02:25:27;;;;;;;8.40;7.60;;;;;;;12.09;89.21;99683.56;102665;277;96725;-53
2023/05/16 02:28:10;;;;;;;8.00;7.20;;;;;;;12.09;89.24;99684.30;102676;277;97071;-53
2023/05/16 02:30:58;;;;;;;8.30;7.30;;;;;;;12.10;89.16;99675.84;102613;277;119366;-57
2023/05/16 02:33:41;;;;;;;9.00;7.20;;;;;;;12.10;89.43;99674.84;102602;277;105542;-54
2023/05/16 02:36:19;;;;;;;8.00;7.20;;;;;;;12.06;89.22;99675.31;102573;266;113693;-53
2023/05/16 02:38:57;;;;;;;9.50;8.50;;;;;;;12.01;89.30;99678.51;102585;277;97179;-53
2023/05/16 02:41:32;;;;;;;8.70;7.80;;;;;;;12.06;89.35;99683.02;102596;277;97788;-53
2023/05/16 02:44:09;;;;;;;8.20;7.40;;;;;;;12.05;89.36;99682.49;102565;277;118103;-53
2023/05/16 02:46:50;;;;;;;8.50;7.60;;;;;;;12.04;89.27;99682.36;102568;277;105069;-53
2023/05/16 02:49:29;;;;;;;10.40;8.60;;;;;;;11.98;89.15;99682.48;102525;277;115064;-55
2023/05/16 02:52:07;;;;;;;8.40;7.60;;;;;;;11.90;88.93;99680.81;102566;277;96295;-56
2023/05/16 02:54:46;;;;;;;9.70;8.70;;;;;;;11.85;88.95;99680.75;102556;277;96761;-56
2023/05/16 02:57:29;;;;;;;8.50;7.60;;;;;;;11.78;88.90;99683.40;102519;278;119767;-56
2023/05/16 03:00:10;;;;;;;9.40;8.10;;;;;;;11.74;88.97;99691.55;102583;277;104387;-53
2023/05/16 03:02:49;;;;;;;8.10;7.30;;;;;;;11.74;89.09;99693.38;102558;277;114412;-53
2023/05/16 03:05:28;;;;;;;8.40;7.00;;;;;;;11.74;89.09;99703.23;102593;277;94656;-53
2023/05/16 03:08:08;;;;;;;8.40;7.50;;;;;;;11.73;89.07;99704.20;102581;277;98674;-54
2023/05/16 03:10:51;;;;;;;9.00;7.00;;;;;;;11.66;89.13;99699.98;102593;277;119074;-53
2023/05/16 03:13:36;;;;;;;7.80;7.00;;;;;;;11.65;89.23;99694.31;102603;277;106268;-53
2023/05/16 03:16:22;;;;;;;7.90;7.20;;;;;;;11.71;89.06;99698.80;102584;277;114713;-57
2023/05/16 03:19:02;;;;;;;8.20;7.30;;;;;;;11.71;89.09;99702.19;102488;277;96386;-53
2023/05/16 03:21:45;;;;;;;8.60;7.70;;;;;;;11.75;89.06;99696.07;102603;277;98218;-53
2023/05/16 03:24:24;;;;;;;8.20;7.30;;;;;;;11.79;88.88;99697.09;102656;277;120039;-56
2023/05/16 03:27:03;;;;;;;8.10;7.30;;;;;;;11.89;88.70;99705.85;102688;277;104257;-56
2023/05/16 03:29:45;;;;;;;9.90;7.70;;;;;;;11.91;88.69;99703.46;102572;277;113218;-54
2023/05/16 03:32:23;;;;;;;7.90;7.10;;;;;;;11.98;88.73;99706.13;102545;277;95734;-52
2023/05/16 03:35:01;;;;;;;7.90;6.50;;;;;;;12.08;88.50;99704.79;102595;277;97716;-53
2023/05/16 03:37:46;;;;;;;7.70;7.00;;;;;;;12.79;88.45;99705.38;102555;277;120046;-53
2023/05/16 03:40:28;;;;;;;6.80;5.90;;;;;;;13.61;87.30;99703.14;102510;277;105371;-57
2023/05/16 03:43:09;;;;;;;7.50;6.40;;;;;;;14.20;86.89;99702.70;102500;277;113889;-57
2023/05/16 03:45:54;;;;;;;7.30;6.20;;;;;;;15.23;85.65;99701.51;102475;277;94249;-53
2023/05/16 03:48:33;;;;;;;7.10;5.80;;;;;;;15.91;84.51;99703.71;102532;277;97246;-53
2023/05/16 03:51:15;;;;;;;6.40;5.80;;;;;;;16.67;83.11;99698.24;102536;277;120176;-57
2023/05/16 03:53:58;;;;;;;6.50;5.90;;;;;;;17.33;81.58;99699.66;102575;277;105974;-58
2023/05/16 03:56:40;;;;;;;6.10;5.60;;;;;;;17.75;79.75;99693.14;102491;277;114266;-57
2023/05/16 03:59:17;;;;;;;6.60;6.00;;;;;;;17.59;78.36;99695.16;102530;277;94182;-54
2023/05/16 04:02:00;;;;;;;5.70;5.20;;;;;;;17.26;77.16;99696.05;102515;277;97583;-54
2023/05/16 04:04:36;;;;;;;6.00;5.50;;;;;;;16.40;77.73;99694.83;102535;278;119363;-53
2023/05/16 04:07:20;;;;;;;6.60;6.00;;;;;;;15.66;77.68;99701.54;102529;277;103076;-53
2023/05/16 04:09:57;;;;;;;6.80;6.10;;;;;;;15.13;78.57;99701.45;102529;277;114766;-56
2023/05/16 04:12:36;;;;;;;6.30;5.70;;;;;;;14.90;79.14;99703.43;102537;277;96943;-57
2023/05/16 04:15:12;;;;;;;5.80;5.20;;;;;;;14.87;79.39;99703.14;102580;277;97622;-58
2023/05/16 04:17:46;;;;;;;7.80;6.50;;;;;;;15.39;79.53;99710.77;102587;277;118599;-57
2023/05/16 04:20:26;;;;;;;7.50;6.40;;;;;;;15.68;78.96;99707.03;102607;277;105259;-54
2023/05/16 04:23:03;;;;;;;6.60;6.00;;;;;;;15.38;78.71;99709.98;102676;277;112987;-54
2023/05/16 04:25:41;;;;;;;6.80;6.10;;;;;;;15.22;78.83;99717.33;102660;277;94781;-57
2023/05/16 04:28:23;;;;;;;7.80;6.20;;;;;;;15.01;78.94;99718.81;102673;277;97749;-57
2023/05/16 04:31:07;;;;;;;7.70;6.00;;;;;;;14.85;78.84;99722.59;102655;277;119677;-54
2023/05/16 04:33:51;;;;;;;7.20;6.50;;;;;;;14.70;79.01;99717.82;102655;277;105491;-57
2023/05/16 04:36:30;;;;;;;7.40;6.70;;;;;;;14.58;79.32;99717.02;102552;277;113322;-56
2023/05/16 04:39:12;;;;;;;9.10;6.90;;;;;;;14.63;79.39;99720.80;102592;277;96755;-57
2023/05/16 04:41:51;;;;;;;10.10;6.80;;;;;;;14.69;79.25;99722.92;102617;277;95405;-57
2023/05/16 04:44:33;;;;;;;6.20;5.60;;;;;;;15.09;79.56;99723.64;102622;277;119167;-54
2023/05/16 04:47:11;;;;;;;5.70;5.10;;;;;;;16.16;79.13;99721.64;102588;278;104452;-54
2023/05/16 04:49:50;;;;;;;7.00;5.50;;;;;;;18.23;77.14;99719.09;102619;265;111982;-56
2023/05/16 04:52:38;;;;;;;6.60;5.40;;;;;;;20.22;74.31;99719.98;102603;277;94267;-57
2023/05/16 04:55:20;;;;;;;5.50;5.00;;;;;;;21.80;71.96;99724.27;102585;277;97674;-53
2023/05/16 04:58:04;;;;;;;5.90;5.40;;;;;;;22.90;69.34;99717.77;102560;277;120620;-54
2023/05/16 05:00:46;;;;;;;;;;;;;;;23.82;66.99;99715.10;102558;277;105664;-55
2023/05/16 05:03:28;;;;;;;6.80;5.70;;;;;;;24.52;65.25;99715.80;102579;277;114680;-53
2023/05/16 05:06:14;;;;;;;6.10;5.50;;;;;;;24.14;63.12;99721.95;102525;278;95448;-56
2023/05/16 05:08:54;;;;;;;5.80;4.90;;;;;;;24.24;62.25;99730.97;102570;277;96793;-57
2023/05/16 05:11:34;;;;;;;5.70;5.20;;;;;;;23.37;60.25;99734.59;102583;278;118998;-57
2023/05/16 05:14:15;;;;;;;6.00;5.40;;;;;;;22.92;60.14;99738.41;102616;277;104553;-57
2023/05/16 05:16:56;;;;;;;6.00;5.30;;;;;;;24.23;57.94;99729.13;102506;277;114005;-57
2023/05/16 05:19:38;;;;;;;6.20;5.10;;;;;;;24.44;57.43;99725.37;102537;277;94006;-58
2023/05/16 05:22:16;;;;;;;5.60;5.10;;;;;;;23.50;57.09;99722.20;102562;277;97851;-60
2023/05/16 05:24:58;;;;;;;6.60;5.50;;;;;;;22.55;58.46;99734.12;102546;277;119855;-57
2023/05/16 05:27:44;;;;;;;10.40;6.20;;;;;;;21.43;58.61;99741.20;102569;277;104094;-57
2023/05/16 05:30:25;;;;;;;6.70;5.70;;;;;;;20.46;59.21;99749.34;102588;277;115384;-53
2023/05/16 05:33:05;;;;;;;6.30;5.70;;;;;;;20.62;60.10;99748.64;102581;277;94794;-54
2023/05/16 05:35:46;;;;;;;6.60;5.30;;;;;;;20.79;60.03;99749.39;102621;277;99115;-56
2023/05/16 05:38:31;;;;;;;6.90;6.10;;;;;;;20.61;59.89;99751.88;102581;277;118181;-57
2023/05/16 05:41:13;;;;;;;6.50;5.90;;;;;;;20.36;60.00;99757.48;102593;277;105752;-53
2023/05/16 05:43:51;;;;;;;8.20;6.20;;;;;;;19.61;60.54;99763.87;102615;277;113417;-55
2023/05/16 05:46:27;;;;;;;6.80;6.10;;;;;;;19.01;61.14;99764.34;102694;277;94410;-54
2023/05/16 05:49:10;;;;;;;7.00;6.30;;;;;;;18.37;61.83;99772.66;102202;278;583829;-54
2023/05/16 05:51:55;;;;;;;7.30;6.40;;;;;;;17.85;62.62;99781.85;102606;277;119920;-54
2023/05/16 05:54:33;;;;;;;7.50;6.70;;;;;;;17.23;63.34;99785.05;102680;277;105023;-52
2023/05/16 05:57:25;;;;;;;8.50;7.50;;;;;;;17.01;63.69;99787.91;102658;277;112974;-53
2023/05/16 06:00:08;;;;;;;7.80;6.70;;;;;;;16.96;64.32;99795.06;102640;277;93131;-56
2023/05/16 06:02:54;;;;;;;7.60;6.80;;;;;;;16.89;64.81;99802.89;102619;277;97420;-57
2023/05/16 06:05:32;;;;;;;8.20;7.20;;;;;;;16.68;65.03;99812.98;102646;277;120542;-57
2023/05/16 06:08:11;;;;;;;8.10;6.90;;;;;;;16.50;65.47;99820.17;102681;277;103830;-57
2023/05/16 06:10:57;;;;;;;7.30;6.70;;;;;;;16.28;65.78;99829.66;102598;266;115313;-53
2023/05/16 06:13:44;;;;;;;8.70;7.80;;;;;;;16.01;66.54;99837.27;102610;277;94155;-54
2023/05/16 06:16:26;;;;;;;9.20;6.80;;;;;;;15.74;67.18;99838.55;102584;277;97737;-57
2023/05/16 06:19:07;;;;;;;8.20;7.30;;;;;;;15.58;67.23;99839.25;102629;277;118479;-57
2023/05/16 06:21:48;;;;;;;8.00;7.20;;;;;;;15.40;67.50;99846.23;102601;266;104606;-58
2023/05/16 06:24:29;;;;;;;11.40;7.60;;;;;;;15.26;67.93;99854.03;102605;277;114889;-54
2023/05/16 06:27:08;;;;;;;7.10;6.50;;;;;;;15.15;68.27;99870.93;102570;277;96455;-54
2023/05/16 06:29:47;;;;;;;7.80;7.00;;;;;;;15.10;68.59;99874.02;102617;277;96821;-54
2023/05/16 06:32:35;;;;;;;8.20;7.40;;;;;;;15.12;68.99;99877.27;102580;277;118702;-51
2023/05/16 06:35:13;;;;;;;8.50;7.10;;;;;;;15.19;69.18;99876.34;102565;277;104597;-64
2023/05/16 06:37:51;;;;;;;7.60;6.90;;;;;;;15.24;69.30;99880.98;102579;277;114348;-57
2023/05/16 06:40:29;;;;;;;8.00;7.20;;;;;;;15.14;69.55;99884.67;102568;277;93597;-58
2023/05/16 06:43:08;;;;;;;9.90;7.10;;;;;;;15.06;69.36;99887.81;102575;277;99273;-58
2023/05/16 06:45:56;;;;;;;7.90;7.20;;;;;;;15.02;69.49;99889.71;102611;277;117982;-54
2023/05/16 06:48:46;;;;;;;9.00;7.20;;;;;;;15.02;69.61;99892.89;102533;277;105291;-57
2023/05/16 06:51:37;;;;;;;8.20;6.80;;;;;;;14.94;69.69;99897.06;102556;277;114108;-57
2023/05/16 06:54:20;;;;;;;8.70;6.80;;;;;;;14.94;69.80;99902.67;102588;277;96926;-53
2023/05/16 06:57:01;;;;;;;8.00;7.20;;;;;;;15.06;69.99;99906.48;102690;277;97060;-54
2023/05/16 06:59:48;;;;;;;8.10;7.30;;;;;;;15.17;70.21;99916.33;102612;277;118831;-53
2023/05/16 07:02:28;;;;;;;8.20;7.40;;;;;;;15.21;70.41;99911.70;102580;277;105862;-53
2023/05/16 07:05:10;;;;;;;8.20;6.90;;;;;;;15.29;70.62;99915.93;102575;277;112159;-51
2023/05/16 07:07:54;;;;;;;8.20;7.50;;;;;;;15.40;70.22;99922.05;102620;277;93279;-53
2023/05/16 07:10:38;;;;;;;7.00;6.40;;;;;;;15.57;70.20;99926.99;102602;277;98096;-58
2023/05/16 07:13:18;;;;;;;18.80;7.70;;;;;;;15.63;69.97;99928.73;102425;277;119170;-56
2023/05/16 07:16:00;;;;;;;6.70;6.10;;;;;;;15.77;69.80;99932.56;102565;277;105379;-57
2023/05/16 07:18:39;;;;;;;7.10;6.20;;;;;;;15.89;70.26;99938.76;102592;277;112498;-54
2023/05/16 07:21:27;;;;;;;7.20;6.00;;;;;;;16.14;69.78;99942.89;102544;277;97316;-53
2023/05/16 07:24:12;;;;;;;7.40;5.40;;;;;;;16.51;69.92;99941.48;102567;277;96908;-57
2023/05/16 07:26:50;;;;;;;6.70;6.00;;;;;;;18.42;71.64;99943.17;102584;277;120320;-56
2023/05/16 07:29:26;;;;;;;6.10;5.50;;;;;;;20.89;68.71;99943.34;102591;278;104354;-57
2023/05/16 07:32:09;;;;;;;5.10;4.70;;;;;;;22.74;66.11;99943.92;102573;277;113347;-57
2023/05/16 07:34:54;;;;;;;4.40;4.00;;;;;;;23.64;61.70;99941.60;102561;277;93733;-54
2023/05/16 07:37:40;;;;;;;3.60;3.30;;;;;;;24.23;60.61;99943.83;102629;277;97577;-55
2023/05/16 07:40:20;;;;;;;6.20;3.60;;;;;;;23.82;56.90;99949.81;102590;277;118820;-57
2023/05/16 07:43:01;;;;;;;6.00;3.60;;;;;;;22.69;56.10;99960.30;102588;277;104574;-55
2023/05/16 07:45:44;;;;;;;5.00;4.00;;;;;;;21.30;56.09;99968.37;102583;277;114504;-53
2023/05/16 07:48:26;;;;;;;3.90;3.50;;;;;;;20.21;56.41;99977.79;102608;277;94838;-54
2023/05/16 07:51:12;;;;;;;5.60;3.90;;;;;;;19.22;57.96;99989.25;102584;277;97519;-58
2023/05/16 07:53:48;;;;;;;4.00;3.50;;;;;;;18.79;59.03;99990.89;102639;277;118168;-54
2023/05/16 07:56:26;;;;;;;4.00;3.40;;;;;;;18.58;59.58;99993.27;102605;278;105029;-54
2023/05/16 07:59:10;;;;;;;4.10;3.70;;;;;;;18.49;60.28;99995.77;102573;277;113621;-57
2023/05/16 08:01:53;;;;;;;5.00;4.00;;;;;;;18.43;60.43;99997.73;102578;277;94875;-56
2023/05/16 08:04:31;;;;;;;8.80;4.40;;;;;;;18.22;60.76;99996.45;102593;277;96894;-58
2023/05/16 08:07:12;;;;;;;4.60;4.20;;;;;;;17.97;61.19;99996.91;102579;266;118817;-57
2023/05/16 08:09:48;;;;;;;4.50;4.10;;;;;;;17.87;61.22;100006.56;102625;277;106687;-54
2023/05/16 08:12:27;;;;;;;4.60;3.80;;;;;;;17.74;61.51;100007.11;102570;277;114020;-54
2023/05/16 08:15:08;;;;;;;4.50;3.90;;;;;;;17.55;62.42;100008.27;102607;278;94872;-54
2023/05/16 08:17:42;;;;;;;4.90;3.60;;;;;;;17.69;62.52;100005.80;102614;277;96984;-54
2023/05/16 08:20:22;;;;;;;5.00;3.40;;;;;;;17.94;62.29;100001.88;102560;277;117951;-57
2023/05/16 08:22:58;;;;;;;3.80;3.50;;;;;;;18.21;62.65;100006.66;102619;277;105125;-57
2023/05/16 08:25:37;;;;;;;3.70;3.30;;;;;;;18.52;62.62;100009.15;102577;277;113973;-56
2023/05/16 08:28:20;;;;;;;3.70;3.30;;;;;;;18.82;62.73;100007.08;102566;277;95234;-57
2023/05/16 08:31:03;;;;;;;3.30;3.00;;;;;;;19.17;62.77;100008.91;102552;277;96023;-57
2023/05/16 08:33:47;;;;;;;3.30;3.00;;;;;;;19.43;62.02;100008.11;102559;277;119185;-56
2023/05/16 08:36:28;;;;;;;4.50;2.90;;;;;;;19.49;60.96;100007.89;102544;277;105538;-57
2023/05/16 08:39:04;;;;;;;3.70;2.60;;;;;;;19.81;61.03;100001.40;102563;277;113626;-57
2023/05/16 08:41:43;;;;;;;3.20;2.30;;;;;;;19.97;60.05;99999.47;102606;277;92928;-57
2023/05/16 08:44:31;;;;;;;4.00;2.70;;;;;;;20.20;60.61;99999.73;102567;277;98032;-53
2023/05/16 08:47:20;;;;;;;3.60;2.60;;;;;;;20.73;60.30;100002.23;102596;277;119671;-54
2023/05/16 08:50:01;;;;;;;3.10;2.10;;;;;;;20.85;59.21;100000.82;102588;277;105591;-56
2023/05/16 08:52:42;;;;;;;3.30;2.50;;;;;;;20.56;59.12;100003.70;102492;277;113142;-56
2023/05/16 08:55:26;;;;;;;3.60;2.40;;;;;;;20.28;58.90;100007.15;102585;277;94718;-56
2023/05/16 08:58:11;;;;;;;3.40;2.60;;;;;;;19.90;58.90;100009.48;102545;277;97159;-57
2023/05/16 09:00:50;;;;;;;4.00;3.10;;;;;;;19.62;59.58;100010.95;102538;277;118526;-54
2023/05/16 09:03:37;;;;;;;4.10;3.00;;;;;;;19.45;60.12;100015.58;102532;277;105719;-54
2023/05/16 09:06:11;;;;;;;3.60;2.90;;;;;;;19.31;60.09;100018.24;102597;277;115047;-52
2023/05/16 09:08:45;;;;;;;;;;;;;;;19.26;59.46;100016.64;102611;277;94471;-54
2023/05/16 09:11:25;;;;;;;2.80;2.50;;;;;;;19.19;59.95;100013.54;102574;277;96304;-54
2023/05/16 09:14:06;;;;;;;2.70;2.50;;;;;;;19.35;60.27;100015.38;102553;277;119827;-56
2023/05/16 09:16:42;;;;;;;4.20;2.50;;;;;;;19.41;60.23;100017.52;102575;277;105135;-56
2023/05/16 09:19:23;;;;;;;3.70;2.50;;;;;;;19.60;59.83;100018.73;102539;277;114605;-57
2023/05/16 09:22:00;;;;;;;3.70;2.40;;;;;;;20.17;59.36;100011.29;102556;277;94251;-58
2023/05/16 09:24:40;;;;;;;3.60;2.80;;;;;;;20.73;59.51;100011.71;102593;277;97092;-56
2023/05/16 09:27:19;;;;;;;3.90;2.90;;;;;;;21.10;58.96;100011.95;102560;277;119307;-58
2023/05/16 09:29:59;;;;;;;3.30;1.90;;;;;;;21.38;58.50;100013.73;102597;277;105970;-58
2023/05/16 09:32:46;;;;;;;2.70;1.90;;;;;;;21.07;57.99;100022.53;102540;277;113440;-58
2023/05/16 09:35:24;;;;;;;2.90;1.70;;;;;;;20.82;57.11;100032.91;102556;277;93487;-53
2023/05/16 09:38:00;;;;;;;2.40;1.60;;;;;;;20.51;57.68;100043.89;102452;277;97501;-53
2023/05/16 09:40:40;;;;;;;3.30;1.90;;;;;;;20.23;57.58;100046.05;102645;277;120108;-54
2023/05/16 09:43:27;;;;;;;4.70;2.60;;;;;;;19.92;57.85;100055.56;102644;277;105767;-54
2023/05/16 09:46:08;;;;;;;2.20;2.00;;;;;;;19.80;57.90;100062.09;102603;277;113998;-54
2023/05/16 09:48:57;;;;;;;1.90;1.70;;;;;;;19.78;57.25;100067.31;102634;277;93375;-55
2023/05/16 09:51:38;;;;;;;1.70;1.60;;;;;;;19.81;57.42;100070.54;102655;277;96253;-56
2023/05/16 09:54:14;;;;;;;2.90;2.00;;;;;;;19.77;57.34;100073.28;102629;277;119376;-56
2023/05/16 09:56:59;;;;;;;2.00;1.60;;;;;;;19.69;57.70;100083.55;102610;277;105416;-57
2023/05/16 09:59:38;;;;;;;3.90;2.00;;;;;;;19.62;57.76;100083.89;102633;277;114769;-54
2023/05/16 10:02:18;;;;;;;2.40;2.00;;;;;;;19.62;57.98;100091.27;102636;277;92410;-57
2023/05/16 10:04:59;;;;;;;2.40;2.00;;;;;;;19.70;58.47;100096.39;102554;277;96106;-54
2023/05/16 10:07:45;;;;;;;4.20;2.20;;;;;;;20.04;58.30;100099.30;102561;277;119631;-54
2023/05/16 10:10:23;;;;;;;3.00;1.70;;;;;;;20.39;57.57;100102.54;102535;277;104995;-56
2023/05/16 10:13:03;;;;;;;2.40;1.80;;;;;;;20.30;57.58;100104.25;102605;277;114921;-57
2023/05/16 10:15:48;;;;;;;3.10;1.80;;;;;;;20.15;57.49;100111.47;102537;277;95600;-56
2023/05/16 10:18:32;;;;;;;2.70;2.00;;;;;;;19.79;56.59;100116.89;102501;277;98364;-55
2023/05/16 10:21:17;;;;;;;3.90;1.80;;;;;;;19.42;56.87;100121.79;102593;277;118826;-57
2023/05/16 10:23:59;;;;;;;2.60;2.10;;;;;;;19.17;57.22;100125.09;102579;277;104856;-54
2023/05/16 10:26:37;;;;;;;2.00;1.80;;;;;;;19.04;57.93;100126.75;102574;277;114290;-51
2023/05/16 10:29:13;;;;;;;2.10;1.90;;;;;;;18.97;58.54;100131.19;102612;266;92668;-58
2023/05/16 10:31:57;;;;;;;3.80;2.20;;;;;;;19.16;59.36;100133.27;102590;277;97659;-57
2023/05/16 10:34:36;;;;;;;2.50;1.90;;;;;;;19.44;59.30;100132.66;102658;277;119511;-57
2023/05/16 10:37:17;;;;;;;2.00;1.70;;;;;;;19.56;58.77;100135.63;102632;277;104615;-57
2023/05/16 10:39:54;;;;;;;3.00;1.70;;;;;;;19.48;57.90;100140.51;102643;274;112969;-54
2023/05/16 10:42:36;;;;;;;2.10;1.60;;;;;;;19.26;57.71;100144.66;102694;277;93957;-54
2023/05/16 10:45:29;;;;;;;2.00;1.40;;;;;;;19.05;57.90;100144.00;102722;277;98077;-53
2023/05/16 10:48:08;;;;;;;2.10;1.50;;;;;;;18.78;57.71;100145.89;102544;278;119892;-54
2023/05/16 10:50:49;;;;;;;2.80;1.50;;;;;;;18.67;57.99;100149.16;102615;277;105582;-57
2023/05/16 10:53:47;;;;;;;1.80;1.40;;;;;;;18.66;58.59;100143.73;102659;277;113438;-57
2023/05/16 10:56:28;;;;;;;3.60;1.70;;;;;;;18.93;58.89;100140.16;102718;277;93640;-54
2023/05/16 10:59:24;;;;;;;1.80;1.50;;;;;;;19.11;59.09;100139.73;102689;277;96570;-54
2023/05/16 11:02:21;;;;;;;1.50;1.40;;;;;;;19.42;58.27;100143.48;102641;277;121163;-54
2023/05/16 11:05:05;;;;;;;2.20;1.80;;;;;;;19.52;57.79;100146.48;102589;277;105672;-57
2023/05/16 11:07:42;;;;;;;2.20;1.40;;;;;;;19.52;58.22;100151.34;102579;277;114192;-54
2023/05/16 11:10:30;;;;;;;2.30;1.60;;;;;;;19.52;58.59;100154.42;102591;277;93860;-58
2023/05/16 11:13:18;;;;;;;3.20;1.50;;;;;;;19.50;58.50;100156.15;102581;277;97581;-58
2023/05/16 11:16:34;;;;;;;1.90;1.40;;;;;;;19.29;58.46;100161.52;102593;277;120022;-55
2023/05/16 11:19:17;;;;;;;3.10;1.50;;;;;;;19.01;58.39;100171.55;102599;277;104789;-58
2023/05/16 11:22:25;;;;;;;2.10;1.30;;;;;;;18.74;58.58;100175.66;102588;278;113406;-58
2023/05/16 11:25:09;;;;;;;2.50;1.60;;;;;;;18.54;59.39;100172.61;102437;278;95403;-57
2023/05/16 11:27:48;;;;;;;2.70;1.40;;;;;;;18.51;59.35;100175.69;102578;278;97296;-64
2023/05/16 11:30:25;;;;;;;2.50;1.60;;;;;;;18.61;59.70;100176.14;102565;277;118360;-52
2023/05/16 11:33:03;;;;;;;3.00;1.70;;;;;;;18.82;59.95;100177.05;102649;277;103926;-53
2023/05/16 11:35:38;;;;;;;2.80;1.40;;;;;;;19.12;59.76;100174.19;102596;277;115106;-57
2023/05/16 11:38:26;;;;;;;1.90;1.70;;;;;;;19.56;59.28;100176.85;102395;278;94132;-53
2023/05/16 11:41:09;;;;;;;3.70;1.50;;;;;;;20.09;58.73;100182.28;102576;277;97062;-53
2023/05/16 11:43:53;;;;;;;2.30;1.90;;;;;;;20.37;58.06;100184.27;102543;277;120635;-56
2023/05/16 11:46:33;;;;;;;1.70;1.40;;;;;;;20.43;57.57;100186.86;102587;277;104589;-56
2023/05/16 11:49:20;;;;;;;2.70;1.80;;;;;;;20.36;57.48;100183.38;102518;277;113775;-58
2023/05/16 11:52:05;;;;;;;2.10;1.70;;;;;;;20.44;57.21;100181.55;102557;277;95190;-57
2023/05/16 11:54:45;;;;;;;2.70;1.80;;;;;;;20.66;57.59;100188.30;102651;277;98569;-53
2023/05/16 11:57:29;;;;;;;4.80;1.90;;;;;;;20.80;56.34;100191.21;102656;277;119049;-54
2023/05/16 12:00:18;;;;;;;2.60;1.90;;;;;;;20.92;56.36;100193.52;102653;277;106045;-54
2023/05/16 12:02:54;;;;;;;2.20;1.80;;;;;;;20.79;56.15;100193.61;102517;277;115867;-53
2023/05/16 12:05:32;;;;;;;3.00;1.80;;;;;;;20.57;56.22;100201.16;102588;277;93003;-59
2023/05/16 12:08:15;;;;;;;2.90;1.90;;;;;;;20.48;55.54;100198.77;102576;277;97808;-58
2023/05/16 12:10:56;;;;;;;1.80;1.50;;;;;;;20.48;56.07;100200.25;102603;277;120095;-54
2023/05/16 12:13:34;;;;;;;2.10;1.80;;;;;;;20.80;56.47;100195.34;102549;277;105958;-52
2023/05/16 12:16:11;;;;;;;4.30;1.50;;;;;;;21.13;56.30;100194.93;102553;277;113041;-57
2023/05/16 12:18:54;;;;;;;2.20;1.70;;;;;;;21.34;55.46;100193.38;102521;277;94613;-57
2023/05/16 12:21:42;;;;;;;1.60;1.40;;;;;;;21.28;55.46;100188.05;102569;277;97316;-57
2023/05/16 12:24:30;;;;;;;2.70;1.60;;;;;;;21.10;55.60;100195.63;102591;277;118383;-57
2023/05/16 12:27:11;;;;;;;2.80;1.70;;;;;;;20.85;55.66;100199.45;102533;277;106228;-57
2023/05/16 12:29:58;;;;;;;2.20;2.00;;;;;;;20.52;55.08;100203.53;102524;277;113908;-57
2023/05/16 12:32:39;;;;;;;3.20;1.90;;;;;;;20.14;55.58;100207.25;102477;277;92218;-54
2023/05/16 12:35:25;;;;;;;4.40;1.80;;;;;;;19.85;55.70;100202.10;102555;277;97631;-57